sensor_id;sensor_type;location;lat;lon;timestamp;P1;durP1;ratioP1;P2;durP2;ratioP2
9214;SDS011;4642;51.364;6.788;2023-06-10T00:00:45;5.83;;;4.77;;
9214;SDS011;4642;51.364;6.788;2023-06-10T00:03:11;9.53;;;4.57;;
9214;SDS011;4642;51.364;6.788;2023-06-10T00:05:37;5.30;;;4.10;;
9214;SDS011;4642;51.364;6.788;2023-06-10T00:08:04;6.27;;;4.50;;
9214;SDS011;4642;51.364;6.788;2023-06-10T00:10:36;5.47;;;4.97;;
9214;SDS011;4642;51.364;6.788;2023-06-10T00:13:03;6.20;;;4.50;;
9214;SDS011;4642;51.364;6.788;2023-06-10T00:15:30;5.90;;;4.63;;
9214;SDS011;4642;51.364;6.788;2023-06-10T00:17:55;5.37;;;4.57;;
9214;SDS011;4642;51.364;6.788;2023-06-10T00:20:21;4.83;;;4.20;;
9214;SDS011;4642;51.364;6.788;2023-06-10T00:22:49;5.43;;;4.90;;
9214;SDS011;4642;51.364;6.788;2023-06-10T00:25:14;5.40;;;4.50;;
9214;SDS011;4642;51.364;6.788;2023-06-10T00:27:40;5.87;;;4.87;;
9214;SDS011;4642;51.364;6.788;2023-06-10T00:30:06;5.90;;;4.47;;
9214;SDS011;4642;51.364;6.788;2023-06-10T00:32:33;5.30;;;4.40;;
9214;SDS011;4642;51.364;6.788;2023-06-10T00:34:59;6.00;;;4.67;;
9214;SDS011;4642;51.364;6.788;2023-06-10T00:37:24;5.37;;;4.87;;
9214;SDS011;4642;51.364;6.788;2023-06-10T00:39:50;5.97;;;4.60;;
9214;SDS011;4642;51.364;6.788;2023-06-10T00:42:16;7.77;;;4.87;;
9214;SDS011;4642;51.364;6.788;2023-06-10T00:44:41;6.10;;;4.90;;
9214;SDS011;4642;51.364;6.788;2023-06-10T00:47:07;7.30;;;4.83;;
9214;SDS011;4642;51.364;6.788;2023-06-10T00:49:33;5.93;;;4.40;;
9214;SDS011;4642;51.364;6.788;2023-06-10T00:51:59;5.80;;;4.73;;
9214;SDS011;4642;51.364;6.788;2023-06-10T00:54:25;6.10;;;5.00;;
9214;SDS011;4642;51.364;6.788;2023-06-10T00:56:51;4.70;;;4.30;;
9214;SDS011;4642;51.364;6.788;2023-06-10T00:59:18;4.87;;;4.30;;
9214;SDS011;4642;51.364;6.788;2023-06-10T01:01:43;6.10;;;5.50;;
9214;SDS011;4642;51.364;6.788;2023-06-10T01:04:12;5.63;;;5.03;;
9214;SDS011;4642;51.364;6.788;2023-06-10T01:11:43;6.77;;;5.27;;
9214;SDS011;4642;51.364;6.788;2023-06-10T01:14:13;7.03;;;4.63;;
9214;SDS011;4642;51.364;6.788;2023-06-10T01:16:42;6.37;;;5.30;;
9214;SDS011;4642;51.364;6.788;2023-06-10T01:19:11;5.47;;;4.60;;
9214;SDS011;4642;51.364;6.788;2023-06-10T01:21:37;6.37;;;5.23;;
9214;SDS011;4642;51.364;6.788;2023-06-10T01:24:04;7.17;;;5.00;;
9214;SDS011;4642;51.364;6.788;2023-06-10T01:26:33;5.10;;;4.60;;
9214;SDS011;4642;51.364;6.788;2023-06-10T01:32:33;6.53;;;5.13;;
9214;SDS011;4642;51.364;6.788;2023-06-10T01:34:39;7.37;;;5.47;;
9214;SDS011;4642;51.364;6.788;2023-06-10T01:37:07;6.20;;;5.30;;
9214;SDS011;4642;51.364;6.788;2023-06-10T01:39:33;5.67;;;5.17;;
9214;SDS011;4642;51.364;6.788;2023-06-10T01:42:00;5.27;;;4.77;;
9214;SDS011;4642;51.364;6.788;2023-06-10T01:44:27;5.43;;;4.57;;
9214;SDS011;4642;51.364;6.788;2023-06-10T01:46:53;6.87;;;5.40;;
9214;SDS011;4642;51.364;6.788;2023-06-10T01:49:18;5.90;;;5.23;;
9214;SDS011;4642;51.364;6.788;2023-06-10T01:51:44;7.60;;;4.93;;
9214;SDS011;4642;51.364;6.788;2023-06-10T01:54:09;7.07;;;5.27;;
9214;SDS011;4642;51.364;6.788;2023-06-10T01:56:35;5.70;;;5.10;;
9214;SDS011;4642;51.364;6.788;2023-06-10T01:59:00;5.93;;;5.20;;
9214;SDS011;4642;51.364;6.788;2023-06-10T02:01:26;7.37;;;5.43;;
9214;SDS011;4642;51.364;6.788;2023-06-10T02:03:51;9.57;;;5.40;;
9214;SDS011;4642;51.364;6.788;2023-06-10T02:06:17;5.83;;;5.00;;
9214;SDS011;4642;51.364;6.788;2023-06-10T02:08:43;5.97;;;5.27;;
9214;SDS011;4642;51.364;6.788;2023-06-10T02:11:08;6.50;;;5.73;;
9214;SDS011;4642;51.364;6.788;2023-06-10T02:13:35;8.10;;;5.33;;
9214;SDS011;4642;51.364;6.788;2023-06-10T02:16:00;8.83;;;5.33;;
9214;SDS011;4642;51.364;6.788;2023-06-10T02:18:26;6.33;;;5.67;;
9214;SDS011;4642;51.364;6.788;2023-06-10T02:20:53;7.70;;;5.70;;
9214;SDS011;4642;51.364;6.788;2023-06-10T02:23:18;6.53;;;5.93;;
9214;SDS011;4642;51.364;6.788;2023-06-10T02:25:44;7.20;;;5.90;;
9214;SDS011;4642;51.364;6.788;2023-06-10T02:28:09;6.27;;;5.60;;
9214;SDS011;4642;51.364;6.788;2023-06-10T02:30:35;6.30;;;5.70;;
9214;SDS011;4642;51.364;6.788;2023-06-10T02:33:03;6.20;;;5.60;;
9214;SDS011;4642;51.364;6.788;2023-06-10T02:35:30;8.70;;;5.70;;
9214;SDS011;4642;51.364;6.788;2023-06-10T02:37:55;7.33;;;5.10;;
9214;SDS011;4642;51.364;6.788;2023-06-10T02:40:21;6.53;;;5.60;;
9214;SDS011;4642;51.364;6.788;2023-06-10T02:42:46;6.33;;;5.40;;
9214;SDS011;4642;51.364;6.788;2023-06-10T02:45:12;6.47;;;5.53;;
9214;SDS011;4642;51.364;6.788;2023-06-10T02:47:37;5.90;;;5.30;;
9214;SDS011;4642;51.364;6.788;2023-06-10T02:50:04;6.10;;;5.53;;
9214;SDS011;4642;51.364;6.788;2023-06-10T02:52:30;6.50;;;5.87;;
9214;SDS011;4642;51.364;6.788;2023-06-10T02:54:56;6.47;;;5.83;;
9214;SDS011;4642;51.364;6.788;2023-06-10T02:57:21;6.73;;;5.97;;
9214;SDS011;4642;51.364;6.788;2023-06-10T02:59:47;8.37;;;7.33;;
9214;SDS011;4642;51.364;6.788;2023-06-10T03:02:13;7.33;;;5.70;;
9214;SDS011;4642;51.364;6.788;2023-06-10T03:04:38;6.30;;;5.70;;
9214;SDS011;4642;51.364;6.788;2023-06-10T03:07:04;9.03;;;5.90;;
9214;SDS011;4642;51.364;6.788;2023-06-10T03:09:32;12.27;;;6.53;;
9214;SDS011;4642;51.364;6.788;2023-06-10T03:11:57;7.03;;;6.30;;
9214;SDS011;4642;51.364;6.788;2023-06-10T03:14:23;10.10;;;6.33;;
9214;SDS011;4642;51.364;6.788;2023-06-10T03:16:50;6.23;;;5.63;;
9214;SDS011;4642;51.364;6.788;2023-06-10T03:19:15;9.43;;;6.03;;
9214;SDS011;4642;51.364;6.788;2023-06-10T03:21:43;6.40;;;5.60;;
9214;SDS011;4642;51.364;6.788;2023-06-10T03:24:09;7.73;;;5.90;;
9214;SDS011;4642;51.364;6.788;2023-06-10T03:26:35;7.70;;;6.23;;
9214;SDS011;4642;51.364;6.788;2023-06-10T03:29:01;8.33;;;5.90;;
9214;SDS011;4642;51.364;6.788;2023-06-10T03:31:27;8.13;;;6.10;;
9214;SDS011;4642;51.364;6.788;2023-06-10T03:33:52;8.23;;;6.43;;
9214;SDS011;4642;51.364;6.788;2023-06-10T03:36:18;9.37;;;6.10;;
9214;SDS011;4642;51.364;6.788;2023-06-10T03:38:43;6.60;;;5.83;;
9214;SDS011;4642;51.364;6.788;2023-06-10T03:41:09;7.93;;;6.20;;
9214;SDS011;4642;51.364;6.788;2023-06-10T03:43:35;9.43;;;6.57;;
9214;SDS011;4642;51.364;6.788;2023-06-10T03:46:00;7.50;;;6.30;;
9214;SDS011;4642;51.364;6.788;2023-06-10T03:48:26;7.67;;;6.57;;
9214;SDS011;4642;51.364;6.788;2023-06-10T03:50:52;6.53;;;5.90;;
9214;SDS011;4642;51.364;6.788;2023-06-10T03:53:17;8.73;;;6.57;;
9214;SDS011;4642;51.364;6.788;2023-06-10T03:55:43;7.20;;;6.50;;
9214;SDS011;4642;51.364;6.788;2023-06-10T03:58:09;8.30;;;5.93;;
9214;SDS011;4642;51.364;6.788;2023-06-10T04:00:38;8.03;;;6.97;;
9214;SDS011;4642;51.364;6.788;2023-06-10T04:03:06;7.00;;;6.37;;
9214;SDS011;4642;51.364;6.788;2023-06-10T04:05:34;9.33;;;6.93;;
9214;SDS011;4642;51.364;6.788;2023-06-10T04:08:00;7.13;;;6.43;;
9214;SDS011;4642;51.364;6.788;2023-06-10T04:10:26;7.73;;;6.77;;
9214;SDS011;4642;51.364;6.788;2023-06-10T04:12:52;8.73;;;7.30;;
9214;SDS011;4642;51.364;6.788;2023-06-10T04:15:17;9.40;;;6.50;;
9214;SDS011;4642;51.364;6.788;2023-06-10T04:17:43;7.13;;;6.33;;
9214;SDS011;4642;51.364;6.788;2023-06-10T04:20:08;6.83;;;6.13;;
9214;SDS011;4642;51.364;6.788;2023-06-10T04:22:34;7.77;;;6.87;;
9214;SDS011;4642;51.364;6.788;2023-06-10T04:25:01;8.43;;;6.13;;
9214;SDS011;4642;51.364;6.788;2023-06-10T04:27:27;8.73;;;7.13;;
9214;SDS011;4642;51.364;6.788;2023-06-10T04:29:52;7.50;;;6.80;;
9214;SDS011;4642;51.364;6.788;2023-06-10T04:32:18;9.27;;;6.83;;
9214;SDS011;4642;51.364;6.788;2023-06-10T04:34:43;8.07;;;6.50;;
9214;SDS011;4642;51.364;6.788;2023-06-10T04:37:09;7.83;;;7.03;;
9214;SDS011;4642;51.364;6.788;2023-06-10T04:39:35;8.93;;;6.83;;
9214;SDS011;4642;51.364;6.788;2023-06-10T04:42:00;7.77;;;6.77;;
9214;SDS011;4642;51.364;6.788;2023-06-10T04:44:26;10.13;;;6.80;;
9214;SDS011;4642;51.364;6.788;2023-06-10T04:46:52;7.50;;;6.80;;
9214;SDS011;4642;51.364;6.788;2023-06-10T04:49:17;8.13;;;7.27;;
9214;SDS011;4642;51.364;6.788;2023-06-10T04:51:43;8.33;;;6.53;;
9214;SDS011;4642;51.364;6.788;2023-06-10T04:54:08;12.13;;;7.30;;
9214;SDS011;4642;51.364;6.788;2023-06-10T04:56:34;7.83;;;7.03;;
9214;SDS011;4642;51.364;6.788;2023-06-10T04:59:00;9.03;;;6.70;;
9214;SDS011;4642;51.364;6.788;2023-06-10T05:01:25;8.17;;;6.80;;
9214;SDS011;4642;51.364;6.788;2023-06-10T05:03:51;8.60;;;7.43;;
9214;SDS011;4642;51.364;6.788;2023-06-10T05:06:16;8.17;;;6.83;;
9214;SDS011;4642;51.364;6.788;2023-06-10T05:08:42;8.33;;;7.43;;
9214;SDS011;4642;51.364;6.788;2023-06-10T05:11:08;9.83;;;7.07;;
9214;SDS011;4642;51.364;6.788;2023-06-10T05:13:33;8.00;;;6.90;;
9214;SDS011;4642;51.364;6.788;2023-06-10T05:15:59;11.60;;;7.20;;
9214;SDS011;4642;51.364;6.788;2023-06-10T05:18:24;7.83;;;7.03;;
9214;SDS011;4642;51.364;6.788;2023-06-10T05:20:50;7.70;;;6.50;;
9214;SDS011;4642;51.364;6.788;2023-06-10T05:23:16;10.93;;;7.40;;
9214;SDS011;4642;51.364;6.788;2023-06-10T05:25:41;8.40;;;7.50;;
9214;SDS011;4642;51.364;6.788;2023-06-10T05:28:07;8.77;;;7.43;;
9214;SDS011;4642;51.364;6.788;2023-06-10T05:30:36;10.40;;;7.57;;
9214;SDS011;4642;51.364;6.788;2023-06-10T05:33:03;10.27;;;7.40;;
9214;SDS011;4642;51.364;6.788;2023-06-10T05:35:29;7.53;;;6.83;;
9214;SDS011;4642;51.364;6.788;2023-06-10T05:37:55;9.53;;;7.13;;
9214;SDS011;4642;51.364;6.788;2023-06-10T05:40:21;10.37;;;7.83;;
9214;SDS011;4642;51.364;6.788;2023-06-10T05:42:46;8.77;;;7.07;;
9214;SDS011;4642;51.364;6.788;2023-06-10T05:45:12;8.03;;;6.83;;
9214;SDS011;4642;51.364;6.788;2023-06-10T05:47:38;9.53;;;7.23;;
9214;SDS011;4642;51.364;6.788;2023-06-10T05:50:03;7.77;;;6.77;;
9214;SDS011;4642;51.364;6.788;2023-06-10T05:52:32;9.83;;;6.67;;
9214;SDS011;4642;51.364;6.788;2023-06-10T05:54:58;8.10;;;6.53;;
9214;SDS011;4642;51.364;6.788;2023-06-10T05:57:24;7.57;;;6.70;;
9214;SDS011;4642;51.364;6.788;2023-06-10T05:59:51;9.03;;;6.60;;
9214;SDS011;4642;51.364;6.788;2023-06-10T06:02:16;7.97;;;6.50;;
9214;SDS011;4642;51.364;6.788;2023-06-10T06:04:42;7.47;;;6.37;;
9214;SDS011;4642;51.364;6.788;2023-06-10T06:07:08;7.27;;;6.30;;
9214;SDS011;4642;51.364;6.788;2023-06-10T06:09:33;9.30;;;6.10;;
9214;SDS011;4642;51.364;6.788;2023-06-10T06:11:59;6.50;;;5.67;;
9214;SDS011;4642;51.364;6.788;2023-06-10T06:14:24;8.40;;;6.20;;
9214;SDS011;4642;51.364;6.788;2023-06-10T06:16:50;8.23;;;5.80;;
9214;SDS011;4642;51.364;6.788;2023-06-10T06:19:16;7.57;;;5.73;;
9214;SDS011;4642;51.364;6.788;2023-06-10T06:21:41;8.70;;;5.87;;
9214;SDS011;4642;51.364;6.788;2023-06-10T06:24:07;6.77;;;5.80;;
9214;SDS011;4642;51.364;6.788;2023-06-10T06:26:32;7.83;;;5.83;;
9214;SDS011;4642;51.364;6.788;2023-06-10T06:28:58;8.17;;;5.60;;
9214;SDS011;4642;51.364;6.788;2023-06-10T06:31:23;7.07;;;5.70;;
9214;SDS011;4642;51.364;6.788;2023-06-10T06:33:49;8.03;;;5.77;;
9214;SDS011;4642;51.364;6.788;2023-06-10T06:36:14;10.00;;;6.07;;
9214;SDS011;4642;51.364;6.788;2023-06-10T06:38:40;5.90;;;5.33;;
9214;SDS011;4642;51.364;6.788;2023-06-10T06:41:06;7.40;;;6.20;;
9214;SDS011;4642;51.364;6.788;2023-06-10T06:43:31;8.23;;;5.63;;
9214;SDS011;4642;51.364;6.788;2023-06-10T06:45:57;7.47;;;5.73;;
9214;SDS011;4642;51.364;6.788;2023-06-10T06:48:23;6.47;;;5.30;;
9214;SDS011;4642;51.364;6.788;2023-06-10T06:50:49;7.73;;;5.60;;
9214;SDS011;4642;51.364;6.788;2023-06-10T06:53:14;7.13;;;4.87;;
9214;SDS011;4642;51.364;6.788;2023-06-10T06:55:40;7.50;;;5.47;;
9214;SDS011;4642;51.364;6.788;2023-06-10T06:58:05;6.70;;;5.70;;
9214;SDS011;4642;51.364;6.788;2023-06-10T07:00:31;7.63;;;5.23;;
9214;SDS011;4642;51.364;6.788;2023-06-10T07:02:57;6.53;;;5.37;;
9214;SDS011;4642;51.364;6.788;2023-06-10T07:05:23;8.27;;;5.00;;
9214;SDS011;4642;51.364;6.788;2023-06-10T07:07:52;7.60;;;4.70;;
9214;SDS011;4642;51.364;6.788;2023-06-10T07:10:23;7.20;;;5.23;;
9214;SDS011;4642;51.364;6.788;2023-06-10T07:12:50;5.50;;;4.93;;
9214;SDS011;4642;51.364;6.788;2023-06-10T07:15:16;5.50;;;4.90;;
9214;SDS011;4642;51.364;6.788;2023-06-10T07:17:41;5.67;;;4.70;;
9214;SDS011;4642;51.364;6.788;2023-06-10T07:20:07;6.10;;;4.33;;
9214;SDS011;4642;51.364;6.788;2023-06-10T07:22:33;5.63;;;4.73;;
9214;SDS011;4642;51.364;6.788;2023-06-10T07:24:59;6.63;;;4.57;;
9214;SDS011;4642;51.364;6.788;2023-06-10T07:27:24;5.07;;;4.33;;
9214;SDS011;4642;51.364;6.788;2023-06-10T07:29:50;6.53;;;4.33;;
9214;SDS011;4642;51.364;6.788;2023-06-10T07:32:16;6.33;;;4.67;;
9214;SDS011;4642;51.364;6.788;2023-06-10T07:34:42;6.43;;;4.57;;
9214;SDS011;4642;51.364;6.788;2023-06-10T07:37:07;7.37;;;4.90;;
9214;SDS011;4642;51.364;6.788;2023-06-10T07:39:33;4.40;;;4.00;;
9214;SDS011;4642;51.364;6.788;2023-06-10T07:41:59;5.60;;;4.30;;
9214;SDS011;4642;51.364;6.788;2023-06-10T07:44:25;5.43;;;4.70;;
9214;SDS011;4642;51.364;6.788;2023-06-10T07:46:50;7.30;;;4.43;;
9214;SDS011;4642;51.364;6.788;2023-06-10T07:49:16;6.50;;;4.23;;
9214;SDS011;4642;51.364;6.788;2023-06-10T07:51:42;5.63;;;4.10;;
9214;SDS011;4642;51.364;6.788;2023-06-10T07:54:07;7.53;;;4.60;;
9214;SDS011;4642;51.364;6.788;2023-06-10T07:56:33;6.43;;;4.30;;
9214;SDS011;4642;51.364;6.788;2023-06-10T07:58:58;7.23;;;4.77;;
9214;SDS011;4642;51.364;6.788;2023-06-10T08:01:24;5.93;;;4.20;;
9214;SDS011;4642;51.364;6.788;2023-06-10T08:03:49;8.00;;;4.87;;
9214;SDS011;4642;51.364;6.788;2023-06-10T08:06:15;5.67;;;4.07;;
9214;SDS011;4642;51.364;6.788;2023-06-10T08:08:42;11.33;;;4.43;;
9214;SDS011;4642;51.364;6.788;2023-06-10T08:11:08;7.00;;;4.80;;
9214;SDS011;4642;51.364;6.788;2023-06-10T08:13:37;5.40;;;4.10;;
9214;SDS011;4642;51.364;6.788;2023-06-10T08:16:03;5.43;;;4.40;;
9214;SDS011;4642;51.364;6.788;2023-06-10T08:18:29;6.27;;;4.13;;
9214;SDS011;4642;51.364;6.788;2023-06-10T08:20:54;4.70;;;4.20;;
9214;SDS011;4642;51.364;6.788;2023-06-10T08:23:20;7.97;;;5.20;;
9214;SDS011;4642;51.364;6.788;2023-06-10T08:25:46;6.57;;;4.53;;
9214;SDS011;4642;51.364;6.788;2023-06-10T08:28:11;7.83;;;4.13;;
9214;SDS011;4642;51.364;6.788;2023-06-10T08:30:37;21.03;;;5.33;;
9214;SDS011;4642;51.364;6.788;2023-06-10T08:33:02;5.80;;;4.37;;
9214;SDS011;4642;51.364;6.788;2023-06-10T08:35:28;10.43;;;4.53;;
9214;SDS011;4642;51.364;6.788;2023-06-10T08:37:54;5.87;;;4.40;;
9214;SDS011;4642;51.364;6.788;2023-06-10T08:40:19;6.80;;;4.47;;
9214;SDS011;4642;51.364;6.788;2023-06-10T08:45:17;6.33;;;4.40;;
9214;SDS011;4642;51.364;6.788;2023-06-10T08:47:44;5.50;;;4.50;;
9214;SDS011;4642;51.364;6.788;2023-06-10T08:50:13;7.33;;;4.50;;
9214;SDS011;4642;51.364;6.788;2023-06-10T08:52:42;6.33;;;4.50;;
9214;SDS011;4642;51.364;6.788;2023-06-10T08:57:44;6.77;;;4.20;;
9214;SDS011;4642;51.364;6.788;2023-06-10T09:00:11;12.27;;;4.33;;
9214;SDS011;4642;51.364;6.788;2023-06-10T09:02:38;6.63;;;4.80;;
9214;SDS011;4642;51.364;6.788;2023-06-10T09:05:04;5.30;;;4.80;;
9214;SDS011;4642;51.364;6.788;2023-06-10T09:07:31;9.53;;;4.40;;
9214;SDS011;4642;51.364;6.788;2023-06-10T09:09:59;6.47;;;4.20;;
9214;SDS011;4642;51.364;6.788;2023-06-10T09:12:28;6.23;;;4.33;;
9214;SDS011;4642;51.364;6.788;2023-06-10T09:14:54;5.17;;;4.20;;
9214;SDS011;4642;51.364;6.788;2023-06-10T09:17:20;6.53;;;4.50;;
9214;SDS011;4642;51.364;6.788;2023-06-10T09:19:46;6.70;;;4.43;;
9214;SDS011;4642;51.364;6.788;2023-06-10T09:22:13;9.37;;;4.20;;
9214;SDS011;4642;51.364;6.788;2023-06-10T09:24:38;7.13;;;4.57;;
9214;SDS011;4642;51.364;6.788;2023-06-10T09:27:05;8.10;;;4.80;;
9214;SDS011;4642;51.364;6.788;2023-06-10T09:29:44;8.33;;;4.50;;
9214;SDS011;4642;51.364;6.788;2023-06-10T09:32:13;7.40;;;4.63;;
9214;SDS011;4642;51.364;6.788;2023-06-10T09:34:39;6.53;;;4.13;;
9214;SDS011;4642;51.364;6.788;2023-06-10T09:37:05;6.35;;;4.63;;
9214;SDS011;4642;51.364;6.788;2023-06-10T09:39:33;5.82;;;4.60;;
9214;SDS011;4642;51.364;6.788;2023-06-10T09:41:58;4.72;;;4.15;;
9214;SDS011;4642;51.364;6.788;2023-06-10T09:44:24;8.07;;;4.30;;
9214;SDS011;4642;51.364;6.788;2023-06-10T09:46:50;7.97;;;4.03;;
9214;SDS011;4642;51.364;6.788;2023-06-10T09:49:19;8.30;;;4.10;;
9214;SDS011;4642;51.364;6.788;2023-06-10T09:51:51;6.25;;;4.10;;
9214;SDS011;4642;51.364;6.788;2023-06-10T09:54:17;7.45;;;4.35;;
9214;SDS011;4642;51.364;6.788;2023-06-10T09:56:43;7.38;;;4.18;;
9214;SDS011;4642;51.364;6.788;2023-06-10T09:59:16;8.38;;;4.70;;
9214;SDS011;4642;51.364;6.788;2023-06-10T10:01:56;6.70;;;4.00;;
9214;SDS011;4642;51.364;6.788;2023-06-10T10:04:25;5.47;;;4.45;;
9214;SDS011;4642;51.364;6.788;2023-06-10T10:06:50;5.15;;;3.90;;
9214;SDS011;4642;51.364;6.788;2023-06-10T10:09:16;5.72;;;4.20;;
9214;SDS011;4642;51.364;6.788;2023-06-10T10:11:41;4.82;;;4.35;;
9214;SDS011;4642;51.364;6.788;2023-06-10T10:14:09;5.38;;;4.30;;
9214;SDS011;4642;51.364;6.788;2023-06-10T10:16:39;5.20;;;4.18;;
9214;SDS011;4642;51.364;6.788;2023-06-10T10:19:16;10.13;;;4.55;;
9214;SDS011;4642;51.364;6.788;2023-06-10T10:21:50;6.88;;;4.28;;
9214;SDS011;4642;51.364;6.788;2023-06-10T10:24:20;8.05;;;4.38;;
9214;SDS011;4642;51.364;6.788;2023-06-10T10:26:48;6.45;;;3.95;;
9214;SDS011;4642;51.364;6.788;2023-06-10T10:31:56;9.60;;;4.53;;
9214;SDS011;4642;51.364;6.788;2023-06-10T10:37:20;5.57;;;4.13;;
9214;SDS011;4642;51.364;6.788;2023-06-10T10:39:46;5.65;;;4.20;;
9214;SDS011;4642;51.364;6.788;2023-06-10T10:42:12;8.18;;;4.38;;
9214;SDS011;4642;51.364;6.788;2023-06-10T10:44:39;6.63;;;4.38;;
9214;SDS011;4642;51.364;6.788;2023-06-10T10:47:07;5.60;;;4.10;;
9214;SDS011;4642;51.364;6.788;2023-06-10T10:49:34;6.72;;;4.43;;
9214;SDS011;4642;51.364;6.788;2023-06-10T10:52:02;6.50;;;4.30;;
9214;SDS011;4642;51.364;6.788;2023-06-10T10:54:31;5.50;;;4.05;;
9214;SDS011;4642;51.364;6.788;2023-06-10T11:02:15;6.88;;;4.00;;
9214;SDS011;4642;51.364;6.788;2023-06-10T11:04:46;13.27;;;4.50;;
9214;SDS011;4642;51.364;6.788;2023-06-10T11:07:13;5.95;;;4.03;;
9214;SDS011;4642;51.364;6.788;2023-06-10T11:15:11;5.15;;;4.18;;
9214;SDS011;4642;51.364;6.788;2023-06-10T11:17:37;4.88;;;3.80;;
9214;SDS011;4642;51.364;6.788;2023-06-10T11:23:07;5.25;;;4.13;;
9214;SDS011;4642;51.364;6.788;2023-06-10T11:25:39;5.63;;;3.85;;
9214;SDS011;4642;51.364;6.788;2023-06-10T11:28:17;5.60;;;4.28;;
9214;SDS011;4642;51.364;6.788;2023-06-10T11:30:43;5.35;;;4.40;;
9214;SDS011;4642;51.364;6.788;2023-06-10T11:33:08;5.47;;;3.85;;
9214;SDS011;4642;51.364;6.788;2023-06-10T11:35:38;10.88;;;4.75;;
9214;SDS011;4642;51.364;6.788;2023-06-10T11:38:04;9.30;;;4.47;;
9214;SDS011;4642;51.364;6.788;2023-06-10T11:40:30;4.72;;;4.25;;
9214;SDS011;4642;51.364;6.788;2023-06-10T11:42:55;7.38;;;4.65;;
9214;SDS011;4642;51.364;6.788;2023-06-10T11:45:22;5.15;;;3.80;;
9214;SDS011;4642;51.364;6.788;2023-06-10T11:47:57;6.78;;;4.05;;
9214;SDS011;4642;51.364;6.788;2023-06-10T11:50:30;6.82;;;4.10;;
9214;SDS011;4642;51.364;6.788;2023-06-10T11:52:58;5.63;;;4.25;;
9214;SDS011;4642;51.364;6.788;2023-06-10T11:55:43;5.95;;;4.40;;
9214;SDS011;4642;51.364;6.788;2023-06-10T12:00:50;5.47;;;4.28;;
9214;SDS011;4642;51.364;6.788;2023-06-10T12:03:18;4.53;;;4.13;;
9214;SDS011;4642;51.364;6.788;2023-06-10T12:05:57;14.00;;;4.43;;
9214;SDS011;4642;51.364;6.788;2023-06-10T12:08:27;6.93;;;4.30;;
9214;SDS011;4642;51.364;6.788;2023-06-10T12:10:53;5.07;;;4.38;;
9214;SDS011;4642;51.364;6.788;2023-06-10T12:13:20;5.53;;;4.20;;
9214;SDS011;4642;51.364;6.788;2023-06-10T12:15:46;5.88;;;3.65;;
9214;SDS011;4642;51.364;6.788;2023-06-10T12:18:18;8.60;;;3.95;;
9214;SDS011;4642;51.364;6.788;2023-06-10T12:20:45;7.50;;;4.63;;
9214;SDS011;4642;51.364;6.788;2023-06-10T12:23:11;11.45;;;4.35;;
9214;SDS011;4642;51.364;6.788;2023-06-10T12:25:37;4.57;;;4.15;;
9214;SDS011;4642;51.364;6.788;2023-06-10T12:28:04;7.15;;;4.50;;
9214;SDS011;4642;51.364;6.788;2023-06-10T12:30:31;4.97;;;4.10;;
9214;SDS011;4642;51.364;6.788;2023-06-10T12:32:57;7.05;;;3.85;;
9214;SDS011;4642;51.364;6.788;2023-06-10T12:35:24;6.63;;;4.40;;
9214;SDS011;4642;51.364;6.788;2023-06-10T12:37:55;8.07;;;4.53;;
9214;SDS011;4642;51.364;6.788;2023-06-10T12:40:28;7.75;;;4.43;;
9214;SDS011;4642;51.364;6.788;2023-06-10T12:42:58;6.47;;;4.22;;
9214;SDS011;4642;51.364;6.788;2023-06-10T12:48:17;5.00;;;4.35;;
9214;SDS011;4642;51.364;6.788;2023-06-10T12:50:44;5.03;;;4.53;;
9214;SDS011;4642;51.364;6.788;2023-06-10T12:53:12;6.93;;;4.50;;
9214;SDS011;4642;51.364;6.788;2023-06-10T12:55:37;5.50;;;4.28;;
9214;SDS011;4642;51.364;6.788;2023-06-10T12:58:03;5.38;;;4.53;;
9214;SDS011;4642;51.364;6.788;2023-06-10T13:00:29;5.43;;;4.28;;
9214;SDS011;4642;51.364;6.788;2023-06-10T13:02:55;6.40;;;4.28;;
9214;SDS011;4642;51.364;6.788;2023-06-10T13:05:21;5.85;;;4.47;;
9214;SDS011;4642;51.364;6.788;2023-06-10T13:07:47;5.43;;;4.30;;
9214;SDS011;4642;51.364;6.788;2023-06-10T13:10:14;4.22;;;3.78;;
9214;SDS011;4642;51.364;6.788;2023-06-10T13:12:41;9.50;;;4.13;;
9214;SDS011;4642;51.364;6.788;2023-06-10T13:15:07;5.53;;;4.32;;
9214;SDS011;4642;51.364;6.788;2023-06-10T13:17:33;4.68;;;4.28;;
9214;SDS011;4642;51.364;6.788;2023-06-10T13:19:59;4.90;;;4.40;;
9214;SDS011;4642;51.364;6.788;2023-06-10T13:22:26;7.32;;;4.60;;
9214;SDS011;4642;51.364;6.788;2023-06-10T13:24:52;4.85;;;4.30;;
9214;SDS011;4642;51.364;6.788;2023-06-10T13:27:17;6.53;;;4.47;;
9214;SDS011;4642;51.364;6.788;2023-06-10T13:29:43;4.82;;;4.03;;
9214;SDS011;4642;51.364;6.788;2023-06-10T13:32:08;4.78;;;3.88;;
9214;SDS011;4642;51.364;6.788;2023-06-10T13:34:35;8.13;;;5.53;;
9214;SDS011;4642;51.364;6.788;2023-06-10T13:37:00;7.40;;;4.82;;
9214;SDS011;4642;51.364;6.788;2023-06-10T13:39:26;7.00;;;4.47;;
9214;SDS011;4642;51.364;6.788;2023-06-10T13:41:52;5.57;;;4.00;;
9214;SDS011;4642;51.364;6.788;2023-06-10T13:44:17;6.72;;;4.05;;
9214;SDS011;4642;51.364;6.788;2023-06-10T13:46:43;4.88;;;4.35;;
9214;SDS011;4642;51.364;6.788;2023-06-10T13:49:08;6.72;;;4.18;;
9214;SDS011;4642;51.364;6.788;2023-06-10T13:51:34;6.40;;;4.45;;
9214;SDS011;4642;51.364;6.788;2023-06-10T13:54:00;5.15;;;4.65;;
9214;SDS011;4642;51.364;6.788;2023-06-10T13:56:25;6.18;;;3.95;;
9214;SDS011;4642;51.364;6.788;2023-06-10T13:58:51;6.32;;;4.13;;
9214;SDS011;4642;51.364;6.788;2023-06-10T14:01:16;8.20;;;4.13;;
9214;SDS011;4642;51.364;6.788;2023-06-10T14:03:42;9.05;;;4.40;;
9214;SDS011;4642;51.364;6.788;2023-06-10T14:06:07;5.50;;;3.97;;
9214;SDS011;4642;51.364;6.788;2023-06-10T14:08:33;6.85;;;4.20;;
9214;SDS011;4642;51.364;6.788;2023-06-10T14:10:59;6.80;;;3.78;;
9214;SDS011;4642;51.364;6.788;2023-06-10T14:13:25;4.38;;;3.97;;
9214;SDS011;4642;51.364;6.788;2023-06-10T14:15:50;5.70;;;4.15;;
9214;SDS011;4642;51.364;6.788;2023-06-10T14:18:16;6.38;;;4.15;;
9214;SDS011;4642;51.364;6.788;2023-06-10T14:20:41;5.90;;;4.40;;
9214;SDS011;4642;51.364;6.788;2023-06-10T14:23:07;7.40;;;4.25;;
9214;SDS011;4642;51.364;6.788;2023-06-10T14:25:32;5.88;;;4.57;;
9214;SDS011;4642;51.364;6.788;2023-06-10T14:27:58;4.88;;;4.38;;
9214;SDS011;4642;51.364;6.788;2023-06-10T14:30:23;4.90;;;4.18;;
9214;SDS011;4642;51.364;6.788;2023-06-10T14:32:49;5.07;;;4.00;;
9214;SDS011;4642;51.364;6.788;2023-06-10T14:35:15;4.55;;;4.15;;
9214;SDS011;4642;51.364;6.788;2023-06-10T14:37:40;7.55;;;3.95;;
9214;SDS011;4642;51.364;6.788;2023-06-10T14:40:06;4.68;;;3.85;;
9214;SDS011;4642;51.364;6.788;2023-06-10T14:42:32;6.93;;;4.32;;
9214;SDS011;4642;51.364;6.788;2023-06-10T14:44:58;7.20;;;4.22;;
9214;SDS011;4642;51.364;6.788;2023-06-10T14:47:23;5.90;;;4.20;;
9214;SDS011;4642;51.364;6.788;2023-06-10T14:49:50;4.93;;;4.22;;
9214;SDS011;4642;51.364;6.788;2023-06-10T14:52:15;5.55;;;4.10;;
9214;SDS011;4642;51.364;6.788;2023-06-10T14:54:41;8.20;;;4.25;;
9214;SDS011;4642;51.364;6.788;2023-06-10T14:57:06;5.88;;;4.20;;
9214;SDS011;4642;51.364;6.788;2023-06-10T14:59:33;8.65;;;4.20;;
9214;SDS011;4642;51.364;6.788;2023-06-10T15:01:59;5.88;;;4.15;;
9214;SDS011;4642;51.364;6.788;2023-06-10T15:04:26;6.85;;;4.68;;
9214;SDS011;4642;51.364;6.788;2023-06-10T15:06:52;5.20;;;4.70;;
9214;SDS011;4642;51.364;6.788;2023-06-10T15:09:17;6.00;;;4.45;;
9214;SDS011;4642;51.364;6.788;2023-06-10T15:11:43;5.90;;;3.78;;
9214;SDS011;4642;51.364;6.788;2023-06-10T15:14:08;5.28;;;3.97;;
9214;SDS011;4642;51.364;6.788;2023-06-10T15:16:34;7.40;;;4.10;;
9214;SDS011;4642;51.364;6.788;2023-06-10T15:19:00;5.30;;;3.92;;
9214;SDS011;4642;51.364;6.788;2023-06-10T15:21:25;7.00;;;3.85;;
9214;SDS011;4642;51.364;6.788;2023-06-10T15:23:50;4.78;;;3.90;;
9214;SDS011;4642;51.364;6.788;2023-06-10T15:26:16;7.32;;;3.97;;
9214;SDS011;4642;51.364;6.788;2023-06-10T15:28:42;6.03;;;4.50;;
9214;SDS011;4642;51.364;6.788;2023-06-10T15:31:07;4.38;;;3.78;;
9214;SDS011;4642;51.364;6.788;2023-06-10T15:33:33;4.63;;;3.83;;
9214;SDS011;4642;51.364;6.788;2023-06-10T15:35:58;6.78;;;4.07;;
9214;SDS011;4642;51.364;6.788;2023-06-10T15:38:24;4.60;;;4.15;;
9214;SDS011;4642;51.364;6.788;2023-06-10T15:40:50;6.47;;;4.22;;
9214;SDS011;4642;51.364;6.788;2023-06-10T15:43:15;6.78;;;4.40;;
9214;SDS011;4642;51.364;6.788;2023-06-10T15:45:41;10.95;;;4.93;;
9214;SDS011;4642;51.364;6.788;2023-06-10T15:48:06;7.88;;;3.85;;